Aviation Digital Data Service (ADDS)

Output produced by METARs form (2139 UTC 08 August 2020)
found at http://www.aviationweather.gov/metar/data/
 
Forecast for: LEBL (BARCELONA AIRPOR, ES)
Text: TAF LEBL 081700Z 0818/0918 21014KT 9999 FEW025 TX32/0912Z TN25/0906Z
Forecast period: 1800 to 2000 UTC 08 August 2020
Forecast type: FROM: standard forecast or significant change
Winds: from the SSW (210 degrees) at 16 MPH (14 knots; 7.2 m/s)
Visibility: 6 or more miles (10+ km)
Ceiling: at least 12,000 feet AGL
Clouds: few clouds at 2500 feet AGL
Weather: no significant weather forecast for this period
Text: BECMG 0820/0822 VRB04KT
Forecast period: 2000 UTC 08 August 2020 to 0600 UTC 09 August 2020
Forecast type: BECOMING: Conditions expected to become as follows by 2200 UTC 08 August 2020
Winds: variable direction winds at 5 MPH (4 knots; 2.1 m/s)
Visibility: 6 or more miles (10+ km)
Ceiling: at least 12,000 feet AGL
Clouds: few clouds at 2500 feet AGL
Weather: no significant weather forecast for this period
Text: BECMG 0906/0908 13007KT
Forecast period: 0600 to 1800 UTC 09 August 2020
Forecast type: BECOMING: Conditions expected to become as follows by 0800 UTC 09 August 2020
Winds: from the SE (130 degrees) at 8 MPH (7 knots; 3.6 m/s)
Visibility: 6 or more miles (10+ km)
Ceiling: at least 12,000 feet AGL
Clouds: few clouds at 2500 feet AGL
Weather: no significant weather forecast for this period